Startpagina
METAR-TAF:

METAR-TAF

Vliegvelden :

Internationale Luchthaven Antwerpen

Antwerpen, België

breedte: 51-12N, lengte: 004-28E, hoogte: 12 m

Actueel weer

Dit bericht is 15 minuten geleden gemaakt, om 13:20 UTC
Wind 6 kt uit het noordoosten, variërend tussen het noorden en het oosten
Temperatuur 20°C
Vochtigheid 46%
Druk 1025 hPa
Zicht 10 km of meer
geen wolken onder 1500 m en geen cumulonimbus

METAR: EBAW 101320Z 04006KT 360V090 CAVOK 20/08 Q1025 NOSIG

Tijdstip: 15:35 (13:35 UTC)

Verwachting

Dit bericht is 2 uur en het 20 minuten geleden gemaakt, om 11:15 UTC
Verwachting geldig van 10 om 12 UTC tot 10 om 21 UTC
Wind 7 kt uit het oostnoordoosten
Zicht 10 km of meer
Weinig wolken op 2000 ft

TAF: EBAW 101115Z 1012/1021 06007KT 9999 FEW020

Waarnemingen en weersverwachtingen van meer dan 4000 vliegvelden (METAR en TAF).

De beschikbare stations zijn de gele en rode punten op de kaart.

Ga met uw muis naar het station om de naam te zien.

Klik dan om waarnemingen en weersverwachtingen te zien.

kaart wijzigen: klik op de groene knoppen met een zwart kruis om in te zoomen, op de groene knop met een streepje om uit te zoomen of op de groene pijlen voor aangrenzende kaarten.


METAR-TAF: